Time;durP1;ratioP1;P1;durP2;ratioP2;P2;SDS_P1;SDS_P2;PMS_P1;PMS_P2;Temp;Humidity;BMP_temperature;BMP_pressure;BME280_temperature;BME280_humidity;BME280_pressure;Samples;Min_cycle;Max_cycle;Signal;HPM_P1;HPM_P2
2021/11/08 00:00:37;;;;;;;18.83;2.78;;;;;;;6.84;96.75;102134.88;4973943;28;20027;-65
2021/11/08 00:03:08;;;;;;;14.90;2.95;;;;;;;6.88;97.29;102131.34;4963811;28;20491;-65
2021/11/08 00:05:38;;;;;;;17.13;2.90;;;;;;;6.94;97.47;102130.41;4955817;29;20075;-65
2021/11/08 00:08:04;;;;;;;14.93;3.42;;;;;;;6.97;97.60;102114.56;4956162;29;20476;-64
2021/11/08 00:10:33;;;;;;;20.15;3.38;;;;;;;6.96;97.72;102112.84;4957425;28;20050;-65
2021/11/08 00:12:59;;;;;;;17.65;2.80;;;;;;;6.94;97.74;102114.63;4957325;28;20035;-65
2021/11/08 00:15:31;;;;;;;22.27;2.80;;;;;;;6.91;97.26;102122.56;4956161;29;20054;-65
2021/11/08 00:18:05;;;;;;;15.40;2.90;;;;;;;6.85;97.45;102116.44;4955655;29;20046;-65
2021/11/08 00:20:43;;;;;;;16.58;3.17;;;;;;;6.81;97.75;102121.75;4956997;28;20059;-65
2021/11/08 00:23:10;;;;;;;16.90;3.15;;;;;;;6.73;97.28;102127.94;4956862;28;20019;-65
2021/11/08 00:25:39;;;;;;;15.32;2.55;;;;;;;6.68;96.98;102119.22;4955777;28;20031;-65
2021/11/08 00:28:07;;;;;;;15.98;2.60;;;;;;;6.62;96.98;102113.97;4955789;29;20034;-64
2021/11/08 00:30:33;;;;;;;12.55;2.30;;;;;;;6.57;97.39;102113.16;4955639;28;20078;-65
2021/11/08 00:32:58;;;;;;;13.85;2.95;;;;;;;6.55;98.02;102113.16;4956637;28;20023;-65
2021/11/08 00:35:24;;;;;;;13.05;2.60;;;;;;;6.59;98.35;102115.78;4969754;28;20058;-65
2021/11/08 00:37:49;;;;;;;15.25;2.95;;;;;;;6.65;98.84;102116.63;4974739;28;20027;-64
2021/11/08 00:40:14;;;;;;;12.85;3.25;;;;;;;6.70;98.93;102121.81;4974947;28;20558;-65
2021/11/08 00:42:41;;;;;;;14.98;2.88;;;;;;;6.78;98.67;102132.28;4973262;28;20505;-64
2021/11/08 00:45:07;;;;;;;14.10;2.88;;;;;;;6.80;97.91;102136.66;4973248;28;20027;-65
2021/11/08 00:47:34;;;;;;;14.20;3.28;;;;;;;6.82;98.57;102129.63;4974653;28;20081;-65
2021/11/08 00:50:00;;;;;;;9.55;2.53;;;;;;;6.84;98.49;102135.75;4974726;28;20518;-65
2021/11/08 00:52:26;;;;;;;16.52;3.17;;;;;;;6.84;98.61;102138.41;4972955;28;20035;-64
2021/11/08 00:54:51;;;;;;;13.50;2.95;;;;;;;6.87;98.89;102138.38;4974332;28;20061;-65
2021/11/08 00:57:21;;;;;;;17.33;3.17;;;;;;;6.82;99.07;102136.66;4955001;28;20035;-65
2021/11/08 00:59:46;;;;;;;13.50;2.60;;;;;;;6.70;99.21;102137.63;4954832;29;20665;-65
2021/11/08 01:02:13;;;;;;;18.23;3.08;;;;;;;6.61;99.50;102135.94;4955020;29;20096;-65
2021/11/08 01:04:38;;;;;;;19.75;3.17;;;;;;;6.54;99.54;102135.09;4956065;28;20113;-65
2021/11/08 01:07:04;;;;;;;16.25;3.00;;;;;;;6.50;99.84;102145.69;4954456;29;20071;-65
2021/11/08 01:09:30;;;;;;;21.60;3.42;;;;;;;6.44;99.91;102140.44;4954482;28;20035;-65
2021/11/08 01:11:56;;;;;;;21.05;2.90;;;;;;;6.38;100.00;102150.13;4955241;29;20436;-65
2021/11/08 01:14:24;;;;;;;18.15;3.38;;;;;;;6.39;100.00;102143.09;4954569;29;20023;-65
2021/11/08 01:16:56;;;;;;;16.80;3.50;;;;;;;6.39;99.95;102144.00;4954867;29;20031;-65
2021/11/08 01:19:21;;;;;;;;;;;;;;;6.36;100.00;102153.66;4955613;29;20028;-65
2021/11/08 01:21:47;;;;;;;17.52;3.13;;;;;;;6.35;100.00;102146.63;4954919;29;19914;-65
2021/11/08 01:24:13;;;;;;;18.15;3.13;;;;;;;6.33;100.00;102149.28;4954466;29;20070;-65
2021/11/08 01:26:38;;;;;;;14.60;3.35;;;;;;;6.32;100.00;102136.16;4935744;29;20027;-65
2021/11/08 01:29:05;;;;;;;20.90;3.28;;;;;;;6.31;100.00;102140.53;4953358;29;20035;-65
2021/11/08 01:31:31;;;;;;;18.00;3.03;;;;;;;6.34;100.00;102139.63;4955007;29;20055;-67
2021/11/08 01:33:57;;;;;;;19.15;3.10;;;;;;;6.38;100.00;102142.25;4954998;29;20085;-65
2021/11/08 01:36:25;;;;;;;16.70;2.95;;;;;;;6.37;100.00;102140.47;4954471;29;20032;-65
2021/11/08 01:38:54;;;;;;;12.93;2.88;;;;;;;6.40;100.00;102136.97;4954470;29;20039;-65
2021/11/08 01:41:25;;;;;;;17.65;2.80;;;;;;;6.47;100.00;102137.78;4954621;29;20024;-65
2021/11/08 01:43:51;;;;;;;15.80;3.08;;;;;;;6.49;100.00;102136.88;4954509;29;20041;-65
2021/11/08 01:46:18;;;;;;;16.63;2.95;;;;;;;6.48;100.00;102139.53;4954245;29;20097;-65
2021/11/08 01:48:44;;;;;;;15.40;3.55;;;;;;;6.45;100.00;102145.69;4954837;29;20031;-65
2021/11/08 01:51:09;;;;;;;17.98;3.58;;;;;;;6.36;100.00;102141.38;4954548;29;20089;-65
2021/11/08 01:53:35;;;;;;;17.88;3.28;;;;;;;6.28;100.00;102148.44;4954735;29;20102;-65
2021/11/08 01:56:02;;;;;;;11.90;2.63;;;;;;;6.20;100.00;102150.22;4953855;29;20114;-66
2021/11/08 01:58:29;;;;;;;20.45;3.38;;;;;;;6.09;100.00;102138.88;4954347;29;20527;-65
2021/11/08 02:00:56;;;;;;;13.57;2.67;;;;;;;5.99;100.00;102138.06;4954499;29;20471;-65
2021/11/08 02:03:22;;;;;;;16.63;2.95;;;;;;;5.93;100.00;102136.31;4954462;29;20034;-65
2021/11/08 02:05:48;;;;;;;17.17;3.90;;;;;;;5.87;100.00;102142.47;4954322;29;20130;-65
2021/11/08 02:08:15;;;;;;;12.75;3.10;;;;;;;5.80;100.00;102135.47;4955669;28;20118;-65
2021/11/08 02:10:40;;;;;;;14.57;3.13;;;;;;;5.76;100.00;102136.38;4954129;29;20023;-65
2021/11/08 02:13:07;;;;;;;17.05;3.22;;;;;;;5.69;100.00;102143.41;4954323;29;20037;-65
2021/11/08 02:15:35;;;;;;;17.10;3.50;;;;;;;5.63;100.00;102134.69;4954193;29;20027;-65
2021/11/08 02:18:01;;;;;;;15.48;3.58;;;;;;;5.62;100.00;102153.97;4962455;28;20550;-64
2021/11/08 02:20:32;;;;;;;20.15;3.95;;;;;;;5.60;100.00;102146.09;4975056;28;20114;-65
2021/11/08 02:23:05;;;;;;;20.70;3.55;;;;;;;5.63;100.00;102147.84;4975807;28;20483;-64
2021/11/08 02:25:33;;;;;;;17.40;3.78;;;;;;;5.56;100.00;102146.94;4977262;28;20106;-65
2021/11/08 02:27:59;;;;;;;14.18;3.60;;;;;;;5.52;100.00;102147.84;4974491;28;20114;-65
2021/11/08 02:30:28;;;;;;;11.15;3.15;;;;;;;5.48;100.00;102143.47;4958034;29;20059;-65
2021/11/08 02:32:55;;;;;;;20.83;4.05;;;;;;;5.44;100.00;102145.25;4957949;29;20051;-65
2021/11/08 02:35:22;;;;;;;12.48;3.40;;;;;;;5.40;100.00;102141.75;4966063;28;20042;-65
2021/11/08 02:37:49;;;;;;;19.73;3.83;;;;;;;5.38;100.00;102140.88;4976966;28;20035;-65
2021/11/08 02:40:19;;;;;;;16.45;4.35;;;;;;;5.35;100.00;102150.53;4974544;28;20391;-65
2021/11/08 02:42:48;;;;;;;12.15;3.53;;;;;;;5.31;100.00;102148.78;4976916;28;20041;-64
2021/11/08 02:45:14;;;;;;;17.27;3.63;;;;;;;5.30;100.00;102141.78;4976971;28;20390;-65
2021/11/08 02:47:44;;;;;;;14.82;3.78;;;;;;;5.29;100.00;102145.28;4977124;28;20023;-65
2021/11/08 02:50:11;;;;;;;16.27;3.85;;;;;;;5.21;100.00;102138.28;4973943;28;20590;-65
2021/11/08 02:52:37;;;;;;;11.77;3.47;;;;;;;5.19;100.00;102140.03;4976683;28;20046;-65
2021/11/08 02:55:03;;;;;;;12.35;3.60;;;;;;;5.17;100.00;102144.41;4976679;28;20058;-65
2021/11/08 02:57:29;;;;;;;19.67;3.35;;;;;;;5.19;100.00;102140.03;4976770;28;20069;-65
2021/11/08 02:59:58;;;;;;;15.30;3.30;;;;;;;5.21;100.00;102145.28;4973915;28;20034;-65
2021/11/08 03:02:23;;;;;;;12.80;3.30;;;;;;;5.23;100.00;102148.75;4957721;28;20083;-65
2021/11/08 03:04:53;;;;;;;17.23;3.60;;;;;;;5.24;100.00;102138.28;4957275;29;20035;-65
2021/11/08 03:07:20;;;;;;;14.75;3.00;;;;;;;5.25;100.00;102140.00;4957431;29;20039;-65
2021/11/08 03:09:56;;;;;;;15.50;3.83;;;;;;;5.19;100.00;102136.53;4958044;28;20098;-65
2021/11/08 03:12:26;;;;;;;9.10;2.80;;;;;;;5.16;100.00;102142.66;4958258;28;20045;-65
2021/11/08 03:17:27;;;;;;;8.90;3.00;;;;;;;5.17;100.00;102147.03;4957491;29;20039;-65
2021/11/08 03:19:52;;;;;;;10.35;2.90;;;;;;;5.19;100.00;102153.19;4958015;28;20048;-65
2021/11/08 03:22:20;;;;;;;10.05;2.97;;;;;;;5.18;100.00;102150.53;4957959;28;20035;-65
2021/11/08 03:27:29;;;;;;;16.05;3.20;;;;;;;5.13;100.00;102150.56;4957183;29;20043;-65
2021/11/08 03:29:55;;;;;;;14.30;3.17;;;;;;;5.09;100.00;102133.91;4957232;29;20063;-65
2021/11/08 03:32:23;;;;;;;14.32;3.67;;;;;;;5.06;100.00;102149.69;4957798;28;20065;-65
2021/11/08 03:37:24;;;;;;;9.50;2.80;;;;;;;4.99;100.00;102150.56;4956574;29;20102;-65
2021/11/08 03:39:49;;;;;;;16.75;3.30;;;;;;;5.00;100.00;102151.41;4956846;29;20128;-65
2021/11/08 03:42:16;;;;;;;14.50;3.15;;;;;;;4.99;100.00;102157.56;4957497;28;20481;-65
2021/11/08 03:44:41;;;;;;;9.35;2.60;;;;;;;4.97;100.00;102161.94;4974332;28;20030;-65
2021/11/08 03:47:07;;;;;;;17.10;3.50;;;;;;;4.93;100.00;102150.56;4976124;28;20038;-64
2021/11/08 03:49:32;;;;;;;11.63;3.17;;;;;;;4.90;100.00;102155.81;4975957;28;20419;-65
2021/11/08 03:52:00;;;;;;;15.52;3.20;;;;;;;4.89;100.00;102165.44;4974142;28;20157;-65
2021/11/08 03:54:26;;;;;;;17.77;3.13;;;;;;;4.86;100.00;102159.28;4974182;28;20058;-65
2021/11/08 03:56:52;;;;;;;14.52;3.13;;;;;;;4.83;100.00;102168.03;4975583;28;20203;-65
2021/11/08 03:59:17;;;;;;;12.32;3.08;;;;;;;4.83;100.00;102162.78;4975841;28;20098;-65
2021/11/08 04:01:42;;;;;;;21.02;3.83;;;;;;;4.83;100.00;102170.66;4975536;28;20525;-65
2021/11/08 04:04:08;;;;;;;10.20;2.80;;;;;;;4.83;100.00;102185.56;4970909;28;20434;-65
2021/11/08 04:06:39;;;;;;;25.02;3.55;;;;;;;4.84;100.00;102182.91;4975000;28;20047;-65
2021/11/08 04:09:08;;;;;;;12.82;2.97;;;;;;;4.85;100.00;102173.31;4975734;28;20162;-65
2021/11/08 04:11:33;;;;;;;13.10;2.72;;;;;;;4.84;100.00;102182.06;4975411;28;20034;-66
2021/11/08 04:13:59;;;;;;;12.68;3.33;;;;;;;4.82;100.00;102187.31;4973954;28;20030;-66
2021/11/08 04:16:27;;;;;;;13.85;3.20;;;;;;;4.79;100.00;102182.03;4973584;28;20558;-66
2021/11/08 04:18:56;;;;;;;12.90;3.05;;;;;;;4.79;100.00;102183.81;4975120;28;20035;-65
2021/11/08 04:21:22;;;;;;;16.60;3.25;;;;;;;4.82;100.00;102183.78;4975188;28;20482;-65
2021/11/08 04:23:48;;;;;;;16.13;3.17;;;;;;;4.87;100.00;102195.16;4974860;28;20031;-65
2021/11/08 04:26:18;;;;;;;17.15;3.70;;;;;;;4.94;100.00;102189.06;4972070;28;20447;-66
2021/11/08 04:28:56;;;;;;;11.25;2.88;;;;;;;5.00;100.00;102191.69;4975305;28;20088;-66
2021/11/08 04:31:22;;;;;;;13.35;2.92;;;;;;;5.08;100.00;102189.94;4974754;28;20023;-66
2021/11/08 04:33:51;;;;;;;16.30;3.78;;;;;;;5.14;100.00;102188.19;4974834;28;20038;-66
2021/11/08 04:41:43;;;;;;;14.52;3.50;;;;;;;5.20;100.00;102206.56;4975103;28;20038;-66
2021/11/08 04:44:30;;;;;;;12.65;3.10;;;;;;;5.19;100.00;102203.06;4974491;28;20067;-66
2021/11/08 04:47:11;;;;;;;15.15;4.13;;;;;;;5.16;100.00;102197.81;4971140;28;20078;-66
2021/11/08 05:21:55;;;;;;;12.40;3.47;;;;;;;5.13;100.00;102197.81;4896107;29;20100;-66
2021/11/08 05:32:15;;;;;;;13.43;3.08;;;;;;;5.60;100.00;102218.78;4914724;29;20168;-64
2021/11/08 05:34:41;;;;;;;21.10;3.17;;;;;;;5.73;100.00;102225.78;4914460;29;20110;-66
2021/11/08 05:37:08;;;;;;;16.13;3.65;;;;;;;5.84;100.00;102218.69;4914229;29;20035;-65
2021/11/08 05:39:43;;;;;;;20.20;3.30;;;;;;;5.96;100.00;102216.91;4912631;29;20079;-65
2021/11/08 05:42:09;;;;;;;11.93;3.22;;;;;;;6.06;100.00;102235.34;4912829;29;20036;-66
2021/11/08 05:44:38;;;;;;;13.18;2.95;;;;;;;6.18;100.00;102230.91;4914104;29;20375;-66
2021/11/08 05:47:03;;;;;;;15.10;2.83;;;;;;;6.28;100.00;102237.00;4961719;28;20030;-66
2021/11/08 05:49:29;;;;;;;12.15;3.03;;;;;;;6.38;100.00;102229.06;4972413;28;20371;-65
2021/11/08 05:51:54;;;;;;;14.45;3.20;;;;;;;6.51;100.00;102224.59;4955372;28;20070;-66
2021/11/08 05:54:21;;;;;;;15.20;3.08;;;;;;;6.56;100.00;102236.00;4955086;28;20386;-65
2021/11/08 05:59:30;;;;;;;17.17;3.00;;;;;;;6.62;100.00;102232.44;4960853;28;20043;-66
2021/11/08 06:49:01;;;;;;;16.40;3.25;;;;;;;7.15;100.00;102242.63;4972789;28;20046;-68
2021/11/08 06:51:20;;;;;;;14.00;3.10;;;;;;;7.23;100.00;102267.16;4979257;28;20517;-67
2021/11/08 06:53:47;;;;;;;15.93;3.20;;;;;;;7.32;99.92;102256.53;4964320;28;20031;-67
2021/11/08 06:56:13;;;;;;;17.27;3.42;;;;;;;7.35;99.69;102255.63;4961001;28;20376;-67
2021/11/08 06:58:41;;;;;;;15.07;3.10;;;;;;;7.40;99.26;102260.88;4959785;28;20027;-66
2021/11/08 07:01:06;;;;;;;18.90;3.47;;;;;;;7.45;99.04;102261.69;4959512;28;20053;-67
2021/11/08 07:03:31;;;;;;;16.98;3.15;;;;;;;7.49;98.64;102259.03;4961268;28;20464;-67
2021/11/08 07:05:57;;;;;;;11.35;3.03;;;;;;;7.49;98.39;102264.31;4961386;28;20463;-66
2021/11/08 07:08:22;;;;;;;16.45;3.10;;;;;;;7.53;98.23;102259.84;4956989;28;20035;-66
2021/11/08 07:10:47;;;;;;;16.70;3.33;;;;;;;7.59;98.19;102275.63;4957092;29;20094;-66
2021/11/08 07:13:13;;;;;;;14.38;3.15;;;;;;;7.65;97.94;102277.34;4969421;28;20038;-66
2021/11/08 07:15:38;;;;;;;19.63;3.95;;;;;;;7.71;96.74;102280.78;4975557;28;20027;-69
2021/11/08 07:18:04;;;;;;;16.13;3.40;;;;;;;7.71;96.11;102285.16;4968226;28;20045;-68
2021/11/08 07:20:29;;;;;;;21.35;5.45;;;;;;;7.78;95.94;102291.28;4964660;28;20481;-68
2021/11/08 07:22:55;;;;;;;15.82;3.70;;;;;;;7.80;95.99;102289.47;4960778;28;20057;-68
2021/11/08 07:25:21;;;;;;;17.30;3.42;;;;;;;7.84;95.65;102291.22;4976248;28;20070;-67
2021/11/08 07:27:47;;;;;;;19.35;3.70;;;;;;;7.87;95.59;102296.44;4972811;28;20038;-66
2021/11/08 07:30:12;;;;;;;14.73;3.38;;;;;;;7.93;94.72;102303.41;4975873;28;20097;-67
2021/11/08 07:32:38;;;;;;;16.15;3.35;;;;;;;7.95;94.74;102302.50;4974178;28;20356;-67
2021/11/08 07:35:05;;;;;;;13.32;3.03;;;;;;;7.99;94.61;102306.00;4973493;28;20505;-66
2021/11/08 07:37:31;;;;;;;14.90;3.00;;;;;;;8.01;94.71;102307.72;4975685;28;20498;-66
2021/11/08 07:39:56;;;;;;;16.13;3.10;;;;;;;8.07;94.73;102304.16;4974892;28;20026;-66
2021/11/08 07:42:22;;;;;;;12.48;3.00;;;;;;;8.11;94.79;102312.94;4961893;28;20479;-66
2021/11/08 07:44:48;;;;;;;12.93;2.63;;;;;;;8.17;94.94;102315.47;4970404;28;20475;-65
2021/11/08 07:47:14;;;;;;;10.65;3.30;;;;;;;8.28;95.04;102321.50;4970931;28;20039;-66
2021/11/08 07:49:39;;;;;;;14.93;3.35;;;;;;;8.37;94.07;102310.84;4955920;28;20467;-66
2021/11/08 07:52:06;;;;;;;12.57;3.20;;;;;;;8.45;93.34;102318.69;4956523;29;20042;-65
2021/11/08 07:54:32;;;;;;;13.45;2.97;;;;;;;8.55;93.06;102319.47;4965932;28;20030;-66
2021/11/08 07:56:59;;;;;;;16.10;3.58;;;;;;;8.58;92.59;102321.19;4957329;28;20030;-64
2021/11/08 07:59:25;;;;;;;14.57;3.05;;;;;;;8.68;91.34;102333.38;4974623;28;20446;-66
2021/11/08 08:01:52;;;;;;;16.15;3.03;;;;;;;8.67;90.60;102336.91;4955548;29;20029;-66
2021/11/08 08:04:18;;;;;;;10.73;3.20;;;;;;;8.66;90.79;102338.69;4972566;28;20027;-67
2021/11/08 08:06:45;;;;;;;17.67;3.53;;;;;;;8.66;90.97;102330.75;4957912;28;20514;-65
2021/11/08 08:09:10;;;;;;;15.60;3.30;;;;;;;8.63;92.07;102335.22;4956274;29;20483;-65
2021/11/08 08:11:36;;;;;;;16.13;3.30;;;;;;;8.61;92.35;102344.94;4955447;28;20034;-65
2021/11/08 08:14:02;;;;;;;16.15;3.40;;;;;;;8.64;92.61;102347.53;4956066;29;20049;-66
2021/11/08 08:16:28;;;;;;;11.75;3.45;;;;;;;8.69;92.54;102348.34;4964292;28;20066;-64
2021/11/08 08:18:54;;;;;;;16.50;2.95;;;;;;;8.69;92.71;102349.19;4957125;28;20083;-66
2021/11/08 08:21:20;;;;;;;14.45;3.25;;;;;;;8.69;92.85;102356.25;4955543;28;20031;-65
2021/11/08 08:23:48;;;;;;;13.98;2.85;;;;;;;8.65;93.61;102350.13;4956903;28;20023;-66
2021/11/08 08:26:14;;;;;;;17.63;3.75;;;;;;;8.63;93.11;102358.97;4969129;28;20031;-66
2021/11/08 08:28:39;;;;;;;18.95;3.30;;;;;;;8.66;93.15;102353.66;4974847;28;20043;-66
2021/11/08 08:31:05;;;;;;;21.33;3.40;;;;;;;8.75;92.35;102366.75;4971837;28;20488;-65
2021/11/08 08:33:31;;;;;;;14.60;3.55;;;;;;;8.81;92.57;102371.06;4971185;28;20039;-66
2021/11/08 08:35:58;;;;;;;15.60;3.58;;;;;;;8.83;91.38;102372.78;4969184;28;20026;-65
2021/11/08 08:38:24;;;;;;;10.88;3.58;;;;;;;8.88;90.73;102367.47;4966925;28;20090;-65
2021/11/08 08:40:51;;;;;;;20.80;4.00;;;;;;;8.87;91.12;102367.50;4973118;28;20077;-66
2021/11/08 08:43:18;;;;;;;15.27;4.07;;;;;;;8.90;91.02;102378.91;4973530;28;20026;-66
2021/11/08 08:45:44;;;;;;;16.95;3.65;;;;;;;8.95;90.88;102362.97;4974357;28;20046;-66
2021/11/08 08:48:11;;;;;;;17.45;3.38;;;;;;;9.04;91.44;102362.88;4972692;28;20429;-66
2021/11/08 08:50:38;;;;;;;15.48;3.15;;;;;;;9.17;91.44;102371.50;4969628;28;20042;-66
2021/11/08 08:53:04;;;;;;;12.75;3.63;;;;;;;9.40;90.10;102360.56;4973970;28;20077;-65
2021/11/08 08:55:29;;;;;;;16.73;3.55;;;;;;;9.57;89.65;102365.56;4973791;28;20019;-65
2021/11/08 08:57:59;;;;;;;16.10;3.25;;;;;;;9.77;87.86;102370.56;4961455;28;20039;-64
2021/11/08 09:00:25;;;;;;;17.25;3.80;;;;;;;9.97;86.56;102361.38;4972226;28;20023;-66
2021/11/08 09:02:52;;;;;;;13.90;3.40;;;;;;;10.15;84.90;102362.81;4973495;28;20486;-64
2021/11/08 09:05:18;;;;;;;15.80;4.10;;;;;;;10.25;84.58;102366.19;4970085;28;20100;-66
2021/11/08 09:07:44;;;;;;;16.10;4.25;;;;;;;10.25;84.32;102366.19;4971819;28;20070;-66
2021/11/08 09:10:10;;;;;;;14.27;3.33;;;;;;;10.33;83.89;102374.84;4973984;28;20035;-66
2021/11/08 09:12:36;;;;;;;16.88;3.33;;;;;;;10.31;83.33;102368.72;4967155;28;20038;-66
2021/11/08 09:15:01;;;;;;;15.65;3.45;;;;;;;10.31;83.25;102381.94;4955424;28;20106;-66
2021/11/08 09:17:27;;;;;;;17.02;3.30;;;;;;;10.31;83.91;102377.50;4955303;28;20115;-66
2021/11/08 09:19:53;;;;;;;14.88;3.30;;;;;;;10.35;83.51;102386.28;4968888;28;20046;-67
2021/11/08 09:22:19;;;;;;;17.40;3.33;;;;;;;10.40;83.77;102392.41;4974753;28;20030;-67
2021/11/08 09:24:44;;;;;;;18.15;3.78;;;;;;;10.44;84.02;102395.84;4957214;28;20391;-67
2021/11/08 09:27:10;;;;;;;17.83;3.28;;;;;;;10.44;83.45;102391.44;4954625;28;20031;-66
2021/11/08 09:29:35;;;;;;;16.25;3.08;;;;;;;10.49;83.73;102386.91;4954303;28;20150;-66
2021/11/08 09:32:01;;;;;;;15.05;3.78;;;;;;;10.57;83.26;102388.53;4954878;28;20034;-65
2021/11/08 09:34:27;;;;;;;12.60;2.95;;;;;;;10.58;83.35;102393.81;4954590;29;20026;-65
2021/11/08 09:36:57;;;;;;;17.83;3.95;;;;;;;10.65;82.45;102387.50;4955094;29;20031;-66
2021/11/08 09:39:34;;;;;;;18.92;3.85;;;;;;;10.76;81.91;102386.41;4954936;29;20106;-67
2021/11/08 09:42:03;;;;;;;17.25;3.55;;;;;;;10.82;81.69;102384.47;4955195;28;20114;-66
2021/11/08 09:44:29;;;;;;;17.27;3.58;;;;;;;10.87;81.47;102389.69;4954742;28;20031;-65
2021/11/08 09:46:56;;;;;;;21.15;4.30;;;;;;;10.90;81.31;102386.97;4954819;29;20499;-68
2021/11/08 09:49:22;;;;;;;16.48;3.20;;;;;;;10.91;81.04;102396.66;4954440;29;20029;-70
2021/11/08 09:51:49;;;;;;;18.20;3.78;;;;;;;10.90;80.85;102394.06;4954691;28;20027;-67
2021/11/08 09:54:15;;;;;;;22.77;3.95;;;;;;;10.93;81.17;102391.34;4972857;28;20039;-67
2021/11/08 09:56:44;;;;;;;20.35;3.42;;;;;;;10.95;80.97;102387.75;4972490;28;20471;-67
2021/11/08 09:59:10;;;;;;;20.02;3.78;;;;;;;10.94;80.99;102399.25;4969817;28;20046;-66
2021/11/08 10:01:38;;;;;;;17.75;3.65;;;;;;;10.92;79.99;102390.47;4970433;28;20442;-66
2021/11/08 10:04:05;;;;;;;22.73;4.88;;;;;;;10.91;79.49;102399.31;4972787;28;20035;-65
2021/11/08 10:06:32;;;;;;;22.63;4.72;;;;;;;10.88;79.20;102394.09;4972997;28;20093;-64
2021/11/08 10:08:58;;;;;;;14.45;3.35;;;;;;;10.82;79.40;102399.53;4974064;28;20552;-65
2021/11/08 10:11:24;;;;;;;19.33;4.18;;;;;;;10.77;79.21;102404.91;4969867;28;20028;-67
2021/11/08 10:13:52;;;;;;;13.38;3.03;;;;;;;10.72;79.84;102403.28;4971927;28;20037;-67
2021/11/08 10:16:29;;;;;;;12.70;3.08;;;;;;;10.64;81.24;102391.03;4973142;28;20479;-67
2021/11/08 10:19:00;;;;;;;14.68;3.22;;;;;;;10.63;80.34;102396.38;4971492;28;20482;-66
2021/11/08 10:21:31;;;;;;;14.48;3.17;;;;;;;10.64;80.94;102400.78;4972429;28;20471;-66
2021/11/08 10:23:59;;;;;;;17.33;3.65;;;;;;;10.74;80.65;102397.03;4952016;28;20365;-65
2021/11/08 10:26:28;;;;;;;16.10;3.20;;;;;;;10.87;80.20;102402.06;4973310;28;20034;-67
2021/11/08 10:29:02;;;;;;;19.50;3.97;;;;;;;10.93;79.04;102402.81;4972434;28;20038;-67
2021/11/08 10:31:31;;;;;;;21.95;3.65;;;;;;;10.99;79.40;102402.66;4973167;28;20497;-64
2021/11/08 10:34:00;;;;;;;13.38;3.13;;;;;;;11.06;77.55;102394.59;4962644;28;20034;-68
2021/11/08 10:36:26;;;;;;;35.53;5.72;;;;;;;11.06;77.24;102399.88;4972018;28;20074;-67
2021/11/08 10:38:55;;;;;;;57.72;9.00;;;;;;;11.13;77.17;102394.41;4973404;28;20027;-67
2021/11/08 10:41:26;;;;;;;15.25;3.70;;;;;;;11.15;77.57;102394.38;4974762;28;20089;-65
2021/11/08 10:43:53;;;;;;;22.77;3.53;;;;;;;11.23;76.71;102383.63;4975014;28;20101;-66
2021/11/08 10:46:25;;;;;;;17.70;3.42;;;;;;;11.23;76.23;102388.94;4975551;28;20029;-66
2021/11/08 10:48:57;;;;;;;15.88;3.13;;;;;;;11.30;76.89;102386.09;4976202;28;20122;-66
2021/11/08 10:51:25;;;;;;;15.40;3.70;;;;;;;11.32;76.17;102384.25;4974987;28;20027;-67
2021/11/08 10:53:52;;;;;;;17.65;3.33;;;;;;;11.45;76.21;102394.59;4973466;28;20396;-67
2021/11/08 10:56:24;;;;;;;13.98;3.13;;;;;;;11.48;76.10;102389.22;4972651;28;20068;-67
2021/11/08 10:58:50;;;;;;;12.60;3.25;;;;;;;11.57;75.15;102396.97;4976505;28;20053;-67
2021/11/08 11:01:22;;;;;;;11.00;2.72;;;;;;;11.67;75.97;102386.13;4976883;28;20035;-65
2021/11/08 11:03:49;;;;;;;17.35;3.30;;;;;;;11.78;72.44;102390.25;4971734;28;20495;-67
2021/11/08 11:06:14;;;;;;;15.55;2.95;;;;;;;11.71;72.46;102391.28;4970706;28;20047;-67
2021/11/08 11:08:54;;;;;;;18.13;3.38;;;;;;;11.71;72.83;102387.78;4976403;28;20094;-66
2021/11/08 11:11:24;;;;;;;11.02;3.00;;;;;;;11.72;72.32;102394.84;4957434;29;20055;-68
2021/11/08 11:13:54;;;;;;;15.27;3.40;;;;;;;11.71;72.72;102403.72;4957161;29;20023;-67
2021/11/08 11:16:36;;;;;;;15.00;2.75;;;;;;;11.72;72.66;102398.34;4958221;28;20031;-66
2021/11/08 11:19:08;;;;;;;14.77;3.10;;;;;;;11.71;72.66;102390.44;4961741;28;20379;-67
2021/11/08 11:21:35;;;;;;;12.88;2.83;;;;;;;11.74;72.33;102399.19;4975932;28;20113;-66
2021/11/08 11:24:03;;;;;;;12.45;2.40;;;;;;;11.64;72.68;102403.84;4975686;28;20105;-65
2021/11/08 11:26:33;;;;;;;14.15;3.10;;;;;;;11.67;70.73;102405.56;4976215;28;20077;-65
2021/11/08 11:28:59;;;;;;;17.25;3.47;;;;;;;11.76;69.90;102401.81;4957585;28;20023;-65
2021/11/08 11:31:28;;;;;;;17.95;3.65;;;;;;;11.73;69.73;102410.72;4957148;29;20518;-66
2021/11/08 11:34:07;;;;;;;13.70;3.17;;;;;;;11.66;69.93;102401.16;4959956;28;20514;-65
2021/11/08 11:36:33;;;;;;;11.48;2.97;;;;;;;11.60;70.78;102402.19;4973095;28;20042;-65
2021/11/08 11:39:03;;;;;;;14.60;3.13;;;;;;;11.68;70.68;102409.09;4975385;28;20058;-64
2021/11/08 11:41:35;;;;;;;15.57;2.70;;;;;;;11.60;70.11;102412.81;4976091;28;20521;-64
2021/11/08 11:44:04;;;;;;;17.35;3.53;;;;;;;11.61;69.11;102411.91;4976206;28;20027;-65
2021/11/08 11:46:45;;;;;;;10.38;2.70;;;;;;;11.77;69.25;102408.88;4976196;28;20046;-64
2021/11/08 11:49:11;;;;;;;14.70;4.07;;;;;;;11.76;68.80;102412.44;4972875;28;20035;-66
2021/11/08 11:51:42;;;;;;;13.98;2.38;;;;;;;11.69;70.32;102413.47;4975255;28;20061;-66
2021/11/08 11:54:10;;;;;;;15.82;2.90;;;;;;;11.60;69.44;102410.16;4958100;28;20031;-67
2021/11/08 11:56:40;;;;;;;14.23;2.92;;;;;;;11.52;71.32;102397.97;4975352;28;20030;-65
2021/11/08 11:59:07;;;;;;;19.48;3.10;;;;;;;11.56;69.58;102404.94;4973202;28;20039;-64
2021/11/08 12:01:35;;;;;;;13.73;3.15;;;;;;;11.50;71.24;102391.84;4974146;28;20040;-64
2021/11/08 12:04:00;;;;;;;19.90;3.03;;;;;;;11.48;69.93;102400.72;4975684;28;20035;-63
2021/11/08 12:06:30;;;;;;;12.43;2.72;;;;;;;11.52;70.77;102400.63;4970326;28;20484;-66
2021/11/08 12:08:57;;;;;;;15.48;3.28;;;;;;;11.47;71.65;102398.06;4964850;28;20058;-65
2021/11/08 12:11:32;;;;;;;18.65;2.83;;;;;;;11.51;71.35;102397.09;4971380;28;20031;-66
2021/11/08 12:14:00;;;;;;;14.27;2.83;;;;;;;11.58;71.53;102400.47;4957532;28;20388;-65
2021/11/08 12:16:28;;;;;;;12.77;3.25;;;;;;;11.57;72.25;102402.28;4956215;29;20082;-66
2021/11/08 12:18:59;;;;;;;13.68;3.05;;;;;;;11.59;72.68;102403.09;4967651;28;20491;-65
2021/11/08 12:21:35;;;;;;;14.68;3.00;;;;;;;11.54;73.47;102394.38;4973334;28;20034;-65
2021/11/08 12:24:13;;;;;;;12.70;2.67;;;;;;;11.59;72.01;102391.63;4975596;28;20122;-66
2021/11/08 12:26:40;;;;;;;9.75;2.65;;;;;;;11.48;73.35;102390.09;4974044;28;20154;-66
2021/11/08 12:29:09;;;;;;;14.38;2.70;;;;;;;11.47;71.74;102390.09;4973115;28;20114;-66
2021/11/08 12:31:36;;;;;;;13.35;2.58;;;;;;;11.51;72.57;102396.22;4973197;28;20039;-65
2021/11/08 12:34:09;;;;;;;16.25;3.05;;;;;;;11.45;73.21;102384.00;4975476;28;20030;-66
2021/11/08 12:36:36;;;;;;;17.63;3.08;;;;;;;11.47;73.75;102392.75;4973387;28;20062;-64
2021/11/08 12:39:09;;;;;;;15.27;2.83;;;;;;;11.49;72.03;102396.25;4973934;28;20035;-65
2021/11/08 12:41:53;;;;;;;14.90;2.67;;;;;;;11.55;71.43;102385.50;4973226;28;20110;-65
2021/11/08 12:44:22;;;;;;;15.65;3.47;;;;;;;11.56;71.87;102384.59;4957401;28;20023;-67
2021/11/08 12:46:59;;;;;;;13.32;2.72;;;;;;;11.63;72.78;102383.53;4964521;28;20053;-66
2021/11/08 12:49:55;;;;;;;15.70;3.80;;;;;;;11.82;70.72;102382.22;4972563;28;20070;-65
2021/11/08 12:52:25;;;;;;;21.75;3.45;;;;;;;11.71;72.07;102390.44;4971804;28;20149;-66
2021/11/08 12:55:06;;;;;;;13.63;2.97;;;;;;;11.77;70.70;102385.84;4971947;28;20046;-66
2021/11/08 12:57:33;;;;;;;14.93;3.10;;;;;;;11.72;72.45;102386.88;4954933;28;20106;-65
2021/11/08 13:00:21;;;;;;;17.35;3.65;;;;;;;11.76;70.27;102377.94;4974217;28;20483;-64
2021/11/08 13:02:55;;;;;;;13.18;3.33;;;;;;;11.81;70.24;102376.03;4973429;28;20027;-66
2021/11/08 13:05:30;;;;;;;16.75;2.88;;;;;;;11.72;69.72;102377.13;4972237;28;20033;-66